sensor_id;sensor_type;location;lat;lon;timestamp;temperature;humidity
7704;DHT22;3894;49.700;10.770;2024-02-26T00:02:17;3.10;99.90
7704;DHT22;3894;49.700;10.770;2024-02-26T00:04:42;3.10;99.90
7704;DHT22;3894;49.700;10.770;2024-02-26T00:07:08;3.10;99.90
7704;DHT22;3894;49.700;10.770;2024-02-26T00:09:33;3.00;99.90
7704;DHT22;3894;49.700;10.770;2024-02-26T00:12:04;3.00;99.90
7704;DHT22;3894;49.700;10.770;2024-02-26T00:14:30;3.00;99.90
7704;DHT22;3894;49.700;10.770;2024-02-26T00:16:56;3.00;99.90
7704;DHT22;3894;49.700;10.770;2024-02-26T00:19:22;3.00;99.90
7704;DHT22;3894;49.700;10.770;2024-02-26T00:21:47;3.00;99.90
7704;DHT22;3894;49.700;10.770;2024-02-26T00:24:13;3.00;99.90
7704;DHT22;3894;49.700;10.770;2024-02-26T00:26:39;3.00;99.90
7704;DHT22;3894;49.700;10.770;2024-02-26T00:29:04;2.90;99.90
7704;DHT22;3894;49.700;10.770;2024-02-26T00:31:30;2.90;99.90
7704;DHT22;3894;49.700;10.770;2024-02-26T00:33:56;2.90;99.90
7704;DHT22;3894;49.700;10.770;2024-02-26T00:36:21;2.90;99.90
7704;DHT22;3894;49.700;10.770;2024-02-26T00:38:47;2.90;99.90
7704;DHT22;3894;49.700;10.770;2024-02-26T00:41:17;2.90;99.90
7704;DHT22;3894;49.700;10.770;2024-02-26T00:43:43;2.90;99.90
7704;DHT22;3894;49.700;10.770;2024-02-26T00:46:08;2.90;99.90
7704;DHT22;3894;49.700;10.770;2024-02-26T00:48:36;2.80;99.90
7704;DHT22;3894;49.700;10.770;2024-02-26T00:51:02;2.80;99.90
7704;DHT22;3894;49.700;10.770;2024-02-26T00:53:30;2.90;99.90
7704;DHT22;3894;49.700;10.770;2024-02-26T00:55:56;2.80;99.90
7704;DHT22;3894;49.700;10.770;2024-02-26T00:58:21;2.80;99.90
7704;DHT22;3894;49.700;10.770;2024-02-26T01:00:47;2.70;99.90
7704;DHT22;3894;49.700;10.770;2024-02-26T01:03:12;2.70;99.90
7704;DHT22;3894;49.700;10.770;2024-02-26T01:05:38;2.70;99.90
7704;DHT22;3894;49.700;10.770;2024-02-26T01:08:04;2.70;99.90
7704;DHT22;3894;49.700;10.770;2024-02-26T01:10:30;2.70;99.90
7704;DHT22;3894;49.700;10.770;2024-02-26T01:12:55;2.60;99.90
7704;DHT22;3894;49.700;10.770;2024-02-26T01:15:21;2.60;99.90
7704;DHT22;3894;49.700;10.770;2024-02-26T01:17:49;2.70;99.90
7704;DHT22;3894;49.700;10.770;2024-02-26T01:20:15;2.70;99.90
7704;DHT22;3894;49.700;10.770;2024-02-26T01:22:42;2.60;99.90
7704;DHT22;3894;49.700;10.770;2024-02-26T01:25:08;2.60;99.90
7704;DHT22;3894;49.700;10.770;2024-02-26T01:27:35;2.60;99.90
7704;DHT22;3894;49.700;10.770;2024-02-26T01:30:02;2.50;99.90
7704;DHT22;3894;49.700;10.770;2024-02-26T01:32:29;2.50;99.90
7704;DHT22;3894;49.700;10.770;2024-02-26T01:34:54;2.50;99.90
7704;DHT22;3894;49.700;10.770;2024-02-26T01:37:20;2.50;99.90
7704;DHT22;3894;49.700;10.770;2024-02-26T01:39:45;2.50;99.90
7704;DHT22;3894;49.700;10.770;2024-02-26T01:42:11;2.50;99.90
7704;DHT22;3894;49.700;10.770;2024-02-26T01:44:36;2.60;99.90
7704;DHT22;3894;49.700;10.770;2024-02-26T01:47:04;2.60;99.90
7704;DHT22;3894;49.700;10.770;2024-02-26T01:49:30;2.60;99.90
7704;DHT22;3894;49.700;10.770;2024-02-26T01:51:57;2.70;99.90
7704;DHT22;3894;49.700;10.770;2024-02-26T01:54:23;2.70;99.90
7704;DHT22;3894;49.700;10.770;2024-02-26T01:56:49;2.70;99.90
7704;DHT22;3894;49.700;10.770;2024-02-26T01:59:16;2.80;99.90
7704;DHT22;3894;49.700;10.770;2024-02-26T02:01:44;2.80;99.90
7704;DHT22;3894;49.700;10.770;2024-02-26T02:04:12;2.80;99.90
7704;DHT22;3894;49.700;10.770;2024-02-26T02:06:38;2.80;99.90
7704;DHT22;3894;49.700;10.770;2024-02-26T02:09:04;2.80;99.90
7704;DHT22;3894;49.700;10.770;2024-02-26T02:11:33;2.80;99.90
7704;DHT22;3894;49.700;10.770;2024-02-26T02:13:59;2.80;99.90
7704;DHT22;3894;49.700;10.770;2024-02-26T02:16:25;2.80;99.90
7704;DHT22;3894;49.700;10.770;2024-02-26T02:18:50;2.80;99.90
7704;DHT22;3894;49.700;10.770;2024-02-26T02:21:16;2.80;99.90
7704;DHT22;3894;49.700;10.770;2024-02-26T02:23:42;2.80;99.90
7704;DHT22;3894;49.700;10.770;2024-02-26T02:26:12;2.80;99.90
7704;DHT22;3894;49.700;10.770;2024-02-26T02:28:39;2.90;99.90
7704;DHT22;3894;49.700;10.770;2024-02-26T02:31:05;2.90;99.90
7704;DHT22;3894;49.700;10.770;2024-02-26T02:33:32;3.00;99.90
7704;DHT22;3894;49.700;10.770;2024-02-26T02:35:58;3.00;99.90
7704;DHT22;3894;49.700;10.770;2024-02-26T02:38:24;3.00;99.90
7704;DHT22;3894;49.700;10.770;2024-02-26T02:40:51;3.10;99.90
7704;DHT22;3894;49.700;10.770;2024-02-26T02:43:23;3.10;99.90
7704;DHT22;3894;49.700;10.770;2024-02-26T02:45:49;3.10;99.90
7704;DHT22;3894;49.700;10.770;2024-02-26T02:48:14;3.10;99.90
7704;DHT22;3894;49.700;10.770;2024-02-26T02:50:40;3.20;99.90
7704;DHT22;3894;49.700;10.770;2024-02-26T02:53:05;3.20;99.90
7704;DHT22;3894;49.700;10.770;2024-02-26T02:55:31;3.20;99.90
7704;DHT22;3894;49.700;10.770;2024-02-26T02:57:56;3.20;99.90
7704;DHT22;3894;49.700;10.770;2024-02-26T03:00:22;3.20;99.90
7704;DHT22;3894;49.700;10.770;2024-02-26T03:02:49;3.20;99.90
7704;DHT22;3894;49.700;10.770;2024-02-26T03:05:14;3.20;99.90
7704;DHT22;3894;49.700;10.770;2024-02-26T03:07:40;3.30;99.90
7704;DHT22;3894;49.700;10.770;2024-02-26T03:10:06;3.30;99.90
7704;DHT22;3894;49.700;10.770;2024-02-26T03:12:33;3.30;99.90
7704;DHT22;3894;49.700;10.770;2024-02-26T03:14:58;3.30;99.90
7704;DHT22;3894;49.700;10.770;2024-02-26T03:17:26;3.30;99.90
7704;DHT22;3894;49.700;10.770;2024-02-26T03:19:52;3.30;99.90
7704;DHT22;3894;49.700;10.770;2024-02-26T03:22:19;3.30;99.90
7704;DHT22;3894;49.700;10.770;2024-02-26T03:24:45;3.30;99.90
7704;DHT22;3894;49.700;10.770;2024-02-26T03:27:11;3.40;99.90
7704;DHT22;3894;49.700;10.770;2024-02-26T03:29:39;3.30;99.90
7704;DHT22;3894;49.700;10.770;2024-02-26T03:32:06;3.30;99.90
7704;DHT22;3894;49.700;10.770;2024-02-26T03:34:32;3.30;99.90
7704;DHT22;3894;49.700;10.770;2024-02-26T03:37:00;3.30;99.90
7704;DHT22;3894;49.700;10.770;2024-02-26T03:39:25;3.30;99.90
7704;DHT22;3894;49.700;10.770;2024-02-26T03:41:51;3.40;99.90
7704;DHT22;3894;49.700;10.770;2024-02-26T03:44:17;3.40;99.90
7704;DHT22;3894;49.700;10.770;2024-02-26T03:46:42;3.40;99.90
7704;DHT22;3894;49.700;10.770;2024-02-26T03:49:08;3.40;99.90
7704;DHT22;3894;49.700;10.770;2024-02-26T03:51:34;3.40;99.90
7704;DHT22;3894;49.700;10.770;2024-02-26T03:54:00;3.40;99.90
7704;DHT22;3894;49.700;10.770;2024-02-26T03:56:26;3.40;99.90
7704;DHT22;3894;49.700;10.770;2024-02-26T03:58:52;3.40;99.90
7704;DHT22;3894;49.700;10.770;2024-02-26T04:01:18;3.30;99.90
7704;DHT22;3894;49.700;10.770;2024-02-26T04:03:43;3.30;99.90
7704;DHT22;3894;49.700;10.770;2024-02-26T04:06:09;3.30;99.90
7704;DHT22;3894;49.700;10.770;2024-02-26T04:08:46;3.30;99.90
7704;DHT22;3894;49.700;10.770;2024-02-26T04:11:12;3.30;99.90
7704;DHT22;3894;49.700;10.770;2024-02-26T04:13:37;3.30;99.90
7704;DHT22;3894;49.700;10.770;2024-02-26T04:16:04;3.20;99.90
7704;DHT22;3894;49.700;10.770;2024-02-26T04:18:31;3.20;99.90
7704;DHT22;3894;49.700;10.770;2024-02-26T04:20:57;3.20;99.90
7704;DHT22;3894;49.700;10.770;2024-02-26T04:23:22;3.20;99.90
7704;DHT22;3894;49.700;10.770;2024-02-26T04:25:48;3.20;99.90
7704;DHT22;3894;49.700;10.770;2024-02-26T04:28:14;3.20;99.90
7704;DHT22;3894;49.700;10.770;2024-02-26T04:30:40;3.20;99.90
7704;DHT22;3894;49.700;10.770;2024-02-26T04:33:06;3.20;99.90
7704;DHT22;3894;49.700;10.770;2024-02-26T04:35:31;3.20;99.90
7704;DHT22;3894;49.700;10.770;2024-02-26T04:37:57;3.20;99.90
7704;DHT22;3894;49.700;10.770;2024-02-26T04:40:23;3.20;99.90
7704;DHT22;3894;49.700;10.770;2024-02-26T04:42:49;3.20;99.90
7704;DHT22;3894;49.700;10.770;2024-02-26T04:45:15;3.20;99.90
7704;DHT22;3894;49.700;10.770;2024-02-26T04:47:40;3.20;99.90
7704;DHT22;3894;49.700;10.770;2024-02-26T04:50:06;3.10;99.90
7704;DHT22;3894;49.700;10.770;2024-02-26T04:52:32;3.10;99.90
7704;DHT22;3894;49.700;10.770;2024-02-26T04:54:57;3.10;99.90
7704;DHT22;3894;49.700;10.770;2024-02-26T04:57:25;3.10;99.90
7704;DHT22;3894;49.700;10.770;2024-02-26T04:59:51;3.10;99.90
7704;DHT22;3894;49.700;10.770;2024-02-26T05:02:17;3.10;99.90
7704;DHT22;3894;49.700;10.770;2024-02-26T05:04:42;3.10;99.90
7704;DHT22;3894;49.700;10.770;2024-02-26T05:07:08;3.10;99.90
7704;DHT22;3894;49.700;10.770;2024-02-26T05:09:34;3.10;99.90
7704;DHT22;3894;49.700;10.770;2024-02-26T05:11:59;3.10;99.90
7704;DHT22;3894;49.700;10.770;2024-02-26T05:14:25;3.10;99.90
7704;DHT22;3894;49.700;10.770;2024-02-26T05:16:51;3.10;99.90
7704;DHT22;3894;49.700;10.770;2024-02-26T05:19:16;3.10;99.90
7704;DHT22;3894;49.700;10.770;2024-02-26T05:21:42;3.10;99.90
7704;DHT22;3894;49.700;10.770;2024-02-26T05:24:09;3.00;99.90
7704;DHT22;3894;49.700;10.770;2024-02-26T05:26:35;3.00;99.90
7704;DHT22;3894;49.700;10.770;2024-02-26T05:29:00;3.00;99.90
7704;DHT22;3894;49.700;10.770;2024-02-26T05:31:26;3.00;99.90
7704;DHT22;3894;49.700;10.770;2024-02-26T05:33:52;3.00;99.90
7704;DHT22;3894;49.700;10.770;2024-02-26T05:36:22;3.00;99.90
7704;DHT22;3894;49.700;10.770;2024-02-26T05:38:52;3.00;99.90
7704;DHT22;3894;49.700;10.770;2024-02-26T05:41:18;3.00;99.90
7704;DHT22;3894;49.700;10.770;2024-02-26T05:43:49;3.00;99.90
7704;DHT22;3894;49.700;10.770;2024-02-26T05:46:17;3.10;99.90
7704;DHT22;3894;49.700;10.770;2024-02-26T05:48:43;3.00;99.90
7704;DHT22;3894;49.700;10.770;2024-02-26T05:51:09;3.10;99.90
7704;DHT22;3894;49.700;10.770;2024-02-26T05:53:35;3.10;99.90
7704;DHT22;3894;49.700;10.770;2024-02-26T05:56:01;3.10;99.90
7704;DHT22;3894;49.700;10.770;2024-02-26T05:58:26;3.10;99.90
7704;DHT22;3894;49.700;10.770;2024-02-26T06:00:52;3.10;99.90
7704;DHT22;3894;49.700;10.770;2024-02-26T06:03:17;3.10;99.90
7704;DHT22;3894;49.700;10.770;2024-02-26T06:05:43;3.20;99.90
7704;DHT22;3894;49.700;10.770;2024-02-26T06:08:09;3.20;99.90
7704;DHT22;3894;49.700;10.770;2024-02-26T06:10:34;3.20;99.90
7704;DHT22;3894;49.700;10.770;2024-02-26T06:13:01;3.20;99.90
7704;DHT22;3894;49.700;10.770;2024-02-26T06:15:27;3.20;99.90
7704;DHT22;3894;49.700;10.770;2024-02-26T06:17:52;3.20;99.90
7704;DHT22;3894;49.700;10.770;2024-02-26T06:20:18;3.20;99.90
7704;DHT22;3894;49.700;10.770;2024-02-26T06:22:43;3.30;99.90
7704;DHT22;3894;49.700;10.770;2024-02-26T06:25:10;3.30;99.90
7704;DHT22;3894;49.700;10.770;2024-02-26T06:27:35;3.30;99.90
7704;DHT22;3894;49.700;10.770;2024-02-26T06:30:01;3.30;99.90
7704;DHT22;3894;49.700;10.770;2024-02-26T06:32:27;3.30;99.90
7704;DHT22;3894;49.700;10.770;2024-02-26T06:34:54;3.40;99.90
7704;DHT22;3894;49.700;10.770;2024-02-26T06:37:20;3.40;99.90
7704;DHT22;3894;49.700;10.770;2024-02-26T06:39:46;3.40;99.90
7704;DHT22;3894;49.700;10.770;2024-02-26T06:42:11;3.40;99.90
7704;DHT22;3894;49.700;10.770;2024-02-26T06:44:37;3.50;99.90
7704;DHT22;3894;49.700;10.770;2024-02-26T06:47:03;3.50;99.90
7704;DHT22;3894;49.700;10.770;2024-02-26T06:49:29;3.50;99.90
7704;DHT22;3894;49.700;10.770;2024-02-26T06:51:55;3.50;99.90
7704;DHT22;3894;49.700;10.770;2024-02-26T06:54:20;3.50;99.90
7704;DHT22;3894;49.700;10.770;2024-02-26T06:56:46;3.50;99.90
7704;DHT22;3894;49.700;10.770;2024-02-26T06:59:12;3.60;99.90
7704;DHT22;3894;49.700;10.770;2024-02-26T07:01:41;3.60;99.90
7704;DHT22;3894;49.700;10.770;2024-02-26T07:04:06;3.60;99.90
7704;DHT22;3894;49.700;10.770;2024-02-26T07:06:32;3.60;99.90
7704;DHT22;3894;49.700;10.770;2024-02-26T07:08:57;3.60;99.90
7704;DHT22;3894;49.700;10.770;2024-02-26T07:11:23;3.70;99.90
7704;DHT22;3894;49.700;10.770;2024-02-26T07:13:48;3.70;99.90
7704;DHT22;3894;49.700;10.770;2024-02-26T07:16:15;3.70;99.90
7704;DHT22;3894;49.700;10.770;2024-02-26T07:18:40;3.80;99.90
7704;DHT22;3894;49.700;10.770;2024-02-26T07:21:06;3.80;99.90
7704;DHT22;3894;49.700;10.770;2024-02-26T07:23:32;3.90;99.90
7704;DHT22;3894;49.700;10.770;2024-02-26T07:25:57;3.90;99.90
7704;DHT22;3894;49.700;10.770;2024-02-26T07:28:24;4.00;99.90
7704;DHT22;3894;49.700;10.770;2024-02-26T07:30:50;4.00;99.90
7704;DHT22;3894;49.700;10.770;2024-02-26T07:33:15;4.00;99.90
7704;DHT22;3894;49.700;10.770;2024-02-26T07:35:41;4.10;99.90
7704;DHT22;3894;49.700;10.770;2024-02-26T07:38:07;4.10;99.90
7704;DHT22;3894;49.700;10.770;2024-02-26T07:40:33;4.20;99.90
7704;DHT22;3894;49.700;10.770;2024-02-26T07:42:58;4.20;99.90
7704;DHT22;3894;49.700;10.770;2024-02-26T07:45:24;4.20;99.90
7704;DHT22;3894;49.700;10.770;2024-02-26T07:47:49;4.20;99.90
7704;DHT22;3894;49.700;10.770;2024-02-26T07:50:17;4.30;99.90
7704;DHT22;3894;49.700;10.770;2024-02-26T07:52:42;4.30;99.90
7704;DHT22;3894;49.700;10.770;2024-02-26T07:55:09;4.30;99.90
7704;DHT22;3894;49.700;10.770;2024-02-26T07:57:34;4.30;99.90
7704;DHT22;3894;49.700;10.770;2024-02-26T08:00:01;4.30;99.90
7704;DHT22;3894;49.700;10.770;2024-02-26T08:02:27;4.30;99.90
7704;DHT22;3894;49.700;10.770;2024-02-26T08:04:53;4.30;99.90
7704;DHT22;3894;49.700;10.770;2024-02-26T08:07:18;4.40;99.90
7704;DHT22;3894;49.700;10.770;2024-02-26T08:09:45;4.40;99.90
7704;DHT22;3894;49.700;10.770;2024-02-26T08:12:11;4.40;99.90
7704;DHT22;3894;49.700;10.770;2024-02-26T08:14:37;4.40;99.90
7704;DHT22;3894;49.700;10.770;2024-02-26T08:17:02;4.50;99.90
7704;DHT22;3894;49.700;10.770;2024-02-26T08:19:28;4.50;99.90
7704;DHT22;3894;49.700;10.770;2024-02-26T08:21:53;4.50;99.90
7704;DHT22;3894;49.700;10.770;2024-02-26T08:24:20;4.60;99.90
7704;DHT22;3894;49.700;10.770;2024-02-26T08:26:45;4.60;99.90
7704;DHT22;3894;49.700;10.770;2024-02-26T08:29:11;4.70;99.90
7704;DHT22;3894;49.700;10.770;2024-02-26T08:31:36;4.70;99.90
7704;DHT22;3894;49.700;10.770;2024-02-26T08:34:03;4.70;99.90
7704;DHT22;3894;49.700;10.770;2024-02-26T08:36:29;4.80;99.90
7704;DHT22;3894;49.700;10.770;2024-02-26T08:38:55;4.90;99.90
7704;DHT22;3894;49.700;10.770;2024-02-26T08:41:21;5.00;99.90
7704;DHT22;3894;49.700;10.770;2024-02-26T08:43:46;5.10;99.90
7704;DHT22;3894;49.700;10.770;2024-02-26T08:46:15;5.20;99.90
7704;DHT22;3894;49.700;10.770;2024-02-26T08:48:40;5.30;99.90
7704;DHT22;3894;49.700;10.770;2024-02-26T08:51:09;5.40;99.90
7704;DHT22;3894;49.700;10.770;2024-02-26T08:53:38;5.50;99.90
7704;DHT22;3894;49.700;10.770;2024-02-26T08:56:04;5.50;99.90
7704;DHT22;3894;49.700;10.770;2024-02-26T08:58:30;5.60;99.90
7704;DHT22;3894;49.700;10.770;2024-02-26T09:00:56;5.70;99.90
7704;DHT22;3894;49.700;10.770;2024-02-26T09:03:22;5.70;99.90
7704;DHT22;3894;49.700;10.770;2024-02-26T09:05:48;5.80;99.90
7704;DHT22;3894;49.700;10.770;2024-02-26T09:08:14;5.80;99.90
7704;DHT22;3894;49.700;10.770;2024-02-26T09:10:40;5.80;99.90
7704;DHT22;3894;49.700;10.770;2024-02-26T09:13:06;5.90;99.90
7704;DHT22;3894;49.700;10.770;2024-02-26T09:15:33;6.00;99.90
7704;DHT22;3894;49.700;10.770;2024-02-26T09:17:58;6.10;99.90
7704;DHT22;3894;49.700;10.770;2024-02-26T09:20:24;6.20;99.90
7704;DHT22;3894;49.700;10.770;2024-02-26T09:22:50;6.40;99.90
7704;DHT22;3894;49.700;10.770;2024-02-26T09:25:16;6.50;99.90
7704;DHT22;3894;49.700;10.770;2024-02-26T09:27:43;6.60;99.90
7704;DHT22;3894;49.700;10.770;2024-02-26T09:30:12;6.60;99.90
7704;DHT22;3894;49.700;10.770;2024-02-26T09:32:38;6.90;99.90
7704;DHT22;3894;49.700;10.770;2024-02-26T09:35:05;7.00;99.90
7704;DHT22;3894;49.700;10.770;2024-02-26T09:37:30;7.00;99.90
7704;DHT22;3894;49.700;10.770;2024-02-26T09:39:56;7.00;99.90
7704;DHT22;3894;49.700;10.770;2024-02-26T09:42:25;7.00;99.90
7704;DHT22;3894;49.700;10.770;2024-02-26T09:44:53;6.90;99.90
7704;DHT22;3894;49.700;10.770;2024-02-26T09:47:19;6.80;99.90
7704;DHT22;3894;49.700;10.770;2024-02-26T09:49:46;6.80;99.90
7704;DHT22;3894;49.700;10.770;2024-02-26T09:52:14;6.70;99.90
7704;DHT22;3894;49.700;10.770;2024-02-26T09:54:40;6.70;99.90
7704;DHT22;3894;49.700;10.770;2024-02-26T09:57:09;6.70;99.90
7704;DHT22;3894;49.700;10.770;2024-02-26T09:59:41;6.80;99.90
7704;DHT22;3894;49.700;10.770;2024-02-26T10:02:12;6.80;99.90
7704;DHT22;3894;49.700;10.770;2024-02-26T10:04:39;6.90;99.90
7704;DHT22;3894;49.700;10.770;2024-02-26T10:07:10;6.90;99.90
7704;DHT22;3894;49.700;10.770;2024-02-26T10:09:36;7.00;99.90
7704;DHT22;3894;49.700;10.770;2024-02-26T10:12:02;7.00;99.90
7704;DHT22;3894;49.700;10.770;2024-02-26T10:14:28;7.10;99.90
7704;DHT22;3894;49.700;10.770;2024-02-26T10:16:54;7.20;99.90
7704;DHT22;3894;49.700;10.770;2024-02-26T10:19:29;7.40;99.90
7704;DHT22;3894;49.700;10.770;2024-02-26T10:21:59;7.60;99.90
7704;DHT22;3894;49.700;10.770;2024-02-26T10:24:26;7.80;99.90
7704;DHT22;3894;49.700;10.770;2024-02-26T10:26:52;8.00;99.90
7704;DHT22;3894;49.700;10.770;2024-02-26T10:29:20;8.10;99.90
7704;DHT22;3894;49.700;10.770;2024-02-26T10:31:46;8.20;99.90
7704;DHT22;3894;49.700;10.770;2024-02-26T10:34:12;8.40;99.90
7704;DHT22;3894;49.700;10.770;2024-02-26T10:36:38;8.40;99.90
7704;DHT22;3894;49.700;10.770;2024-02-26T10:39:06;8.50;99.90
7704;DHT22;3894;49.700;10.770;2024-02-26T10:41:35;8.60;99.90
7704;DHT22;3894;49.700;10.770;2024-02-26T10:44:00;8.80;99.90
7704;DHT22;3894;49.700;10.770;2024-02-26T10:46:27;8.90;99.90
7704;DHT22;3894;49.700;10.770;2024-02-26T10:48:53;9.10;99.90
7704;DHT22;3894;49.700;10.770;2024-02-26T10:51:26;9.30;99.90
7704;DHT22;3894;49.700;10.770;2024-02-26T10:53:58;9.40;99.90
7704;DHT22;3894;49.700;10.770;2024-02-26T10:56:26;9.40;99.90
7704;DHT22;3894;49.700;10.770;2024-02-26T10:58:55;9.70;99.90
7704;DHT22;3894;49.700;10.770;2024-02-26T11:01:21;9.90;99.90
7704;DHT22;3894;49.700;10.770;2024-02-26T11:03:52;10.00;99.90
7704;DHT22;3894;49.700;10.770;2024-02-26T11:06:19;10.00;99.90
7704;DHT22;3894;49.700;10.770;2024-02-26T11:08:49;10.00;99.90
7704;DHT22;3894;49.700;10.770;2024-02-26T11:11:16;10.00;99.90
7704;DHT22;3894;49.700;10.770;2024-02-26T11:13:44;10.00;99.90
7704;DHT22;3894;49.700;10.770;2024-02-26T11:16:13;10.00;99.90
7704;DHT22;3894;49.700;10.770;2024-02-26T11:18:40;10.00;99.90
7704;DHT22;3894;49.700;10.770;2024-02-26T11:21:07;10.10;99.90
7704;DHT22;3894;49.700;10.770;2024-02-26T11:23:34;10.10;99.90
7704;DHT22;3894;49.700;10.770;2024-02-26T11:26:04;10.10;99.90
7704;DHT22;3894;49.700;10.770;2024-02-26T11:28:32;10.20;99.90
7704;DHT22;3894;49.700;10.770;2024-02-26T11:30:59;10.20;99.90
7704;DHT22;3894;49.700;10.770;2024-02-26T11:33:26;10.30;99.90
7704;DHT22;3894;49.700;10.770;2024-02-26T11:35:51;10.30;99.90
7704;DHT22;3894;49.700;10.770;2024-02-26T11:38:24;10.20;99.90
7704;DHT22;3894;49.700;10.770;2024-02-26T11:40:51;10.20;99.90
7704;DHT22;3894;49.700;10.770;2024-02-26T11:43:17;10.20;99.90
7704;DHT22;3894;49.700;10.770;2024-02-26T11:50:42;9.90;99.90
7704;DHT22;3894;49.700;10.770;2024-02-26T11:53:26;9.90;99.90
7704;DHT22;3894;49.700;10.770;2024-02-26T11:59:44;9.90;99.90
7704;DHT22;3894;49.700;10.770;2024-02-26T12:02:09;9.90;99.90
7704;DHT22;3894;49.700;10.770;2024-02-26T12:04:36;9.90;99.90
7704;DHT22;3894;49.700;10.770;2024-02-26T12:07:03;9.90;99.90
7704;DHT22;3894;49.700;10.770;2024-02-26T12:09:42;9.90;99.90
7704;DHT22;3894;49.700;10.770;2024-02-26T12:12:10;9.90;99.90
7704;DHT22;3894;49.700;10.770;2024-02-26T12:14:55;9.90;99.90
7704;DHT22;3894;49.700;10.770;2024-02-26T12:17:22;9.90;99.90
7704;DHT22;3894;49.700;10.770;2024-02-26T12:19:48;10.00;99.90
7704;DHT22;3894;49.700;10.770;2024-02-26T12:22:14;10.00;99.90
7704;DHT22;3894;49.700;10.770;2024-02-26T12:24:42;10.10;99.90
7704;DHT22;3894;49.700;10.770;2024-02-26T12:27:08;10.10;99.90
7704;DHT22;3894;49.700;10.770;2024-02-26T12:29:33;10.10;99.90
7704;DHT22;3894;49.700;10.770;2024-02-26T12:31:59;10.20;99.90
7704;DHT22;3894;49.700;10.770;2024-02-26T12:34:25;10.20;99.90
7704;DHT22;3894;49.700;10.770;2024-02-26T12:36:53;10.20;99.90
7704;DHT22;3894;49.700;10.770;2024-02-26T12:39:19;10.20;99.90
7704;DHT22;3894;49.700;10.770;2024-02-26T12:41:46;10.20;99.90
7704;DHT22;3894;49.700;10.770;2024-02-26T12:44:18;10.20;99.90
7704;DHT22;3894;49.700;10.770;2024-02-26T12:46:44;10.10;99.90
7704;DHT22;3894;49.700;10.770;2024-02-26T12:49:14;10.10;99.90
7704;DHT22;3894;49.700;10.770;2024-02-26T12:51:40;10.10;99.90
7704;DHT22;3894;49.700;10.770;2024-02-26T12:54:07;10.20;99.90
7704;DHT22;3894;49.700;10.770;2024-02-26T12:56:34;10.30;99.90
7704;DHT22;3894;49.700;10.770;2024-02-26T12:58:59;10.40;99.90
7704;DHT22;3894;49.700;10.770;2024-02-26T13:01:26;10.50;99.90
7704;DHT22;3894;49.700;10.770;2024-02-26T13:03:52;10.60;99.90
7704;DHT22;3894;49.700;10.770;2024-02-26T13:06:19;10.70;99.90
7704;DHT22;3894;49.700;10.770;2024-02-26T13:08:46;10.70;99.90
7704;DHT22;3894;49.700;10.770;2024-02-26T13:11:12;10.70;99.90
7704;DHT22;3894;49.700;10.770;2024-02-26T13:13:38;10.80;99.90
7704;DHT22;3894;49.700;10.770;2024-02-26T13:16:09;10.80;99.90
7704;DHT22;3894;49.700;10.770;2024-02-26T13:18:35;10.80;99.90
7704;DHT22;3894;49.700;10.770;2024-02-26T13:21:15;10.80;99.90
7704;DHT22;3894;49.700;10.770;2024-02-26T13:23:42;10.80;99.90
7704;DHT22;3894;49.700;10.770;2024-02-26T13:26:09;10.80;99.90
7704;DHT22;3894;49.700;10.770;2024-02-26T13:28:37;10.80;99.90
7704;DHT22;3894;49.700;10.770;2024-02-26T13:31:02;10.80;99.90
7704;DHT22;3894;49.700;10.770;2024-02-26T13:33:30;10.80;99.90
7704;DHT22;3894;49.700;10.770;2024-02-26T13:35:57;10.80;99.90
7704;DHT22;3894;49.700;10.770;2024-02-26T13:38:23;10.80;99.90
7704;DHT22;3894;49.700;10.770;2024-02-26T13:40:50;10.80;99.90
7704;DHT22;3894;49.700;10.770;2024-02-26T13:43:15;10.90;99.90
7704;DHT22;3894;49.700;10.770;2024-02-26T13:45:41;10.90;99.90
7704;DHT22;3894;49.700;10.770;2024-02-26T13:48:10;11.00;99.90
7704;DHT22;3894;49.700;10.770;2024-02-26T13:50:40;10.90;99.90
7704;DHT22;3894;49.700;10.770;2024-02-26T13:53:06;10.90;99.90
7704;DHT22;3894;49.700;10.770;2024-02-26T13:55:32;10.90;99.90
7704;DHT22;3894;49.700;10.770;2024-02-26T13:57:59;10.90;99.90
7704;DHT22;3894;49.700;10.770;2024-02-26T14:00:27;10.90;99.90
7704;DHT22;3894;49.700;10.770;2024-02-26T14:02:52;10.90;99.90
7704;DHT22;3894;49.700;10.770;2024-02-26T14:05:18;10.90;99.90
7704;DHT22;3894;49.700;10.770;2024-02-26T14:07:44;10.80;99.90
7704;DHT22;3894;49.700;10.770;2024-02-26T14:10:12;10.90;99.90
7704;DHT22;3894;49.700;10.770;2024-02-26T14:12:38;10.90;99.90
7704;DHT22;3894;49.700;10.770;2024-02-26T14:15:08;10.90;99.90
7704;DHT22;3894;49.700;10.770;2024-02-26T14:17:35;10.90;99.90
7704;DHT22;3894;49.700;10.770;2024-02-26T14:20:00;10.90;99.90
7704;DHT22;3894;49.700;10.770;2024-02-26T14:22:26;10.90;99.90
7704;DHT22;3894;49.700;10.770;2024-02-26T14:24:56;10.90;99.90
7704;DHT22;3894;49.700;10.770;2024-02-26T14:27:21;10.90;99.90
7704;DHT22;3894;49.700;10.770;2024-02-26T14:29:48;10.80;99.90
7704;DHT22;3894;49.700;10.770;2024-02-26T14:32:14;10.80;99.90
7704;DHT22;3894;49.700;10.770;2024-02-26T14:34:39;10.80;99.90
7704;DHT22;3894;49.700;10.770;2024-02-26T14:37:05;10.70;99.90
7704;DHT22;3894;49.700;10.770;2024-02-26T14:39:34;10.70;99.90
7704;DHT22;3894;49.700;10.770;2024-02-26T14:42:00;10.60;99.90
7704;DHT22;3894;49.700;10.770;2024-02-26T14:44:26;10.70;99.90
7704;DHT22;3894;49.700;10.770;2024-02-26T14:46:52;10.60;99.90
7704;DHT22;3894;49.700;10.770;2024-02-26T14:49:19;10.60;99.90
7704;DHT22;3894;49.700;10.770;2024-02-26T14:51:45;10.60;99.90
7704;DHT22;3894;49.700;10.770;2024-02-26T14:54:14;10.60;99.90
7704;DHT22;3894;49.700;10.770;2024-02-26T14:56:40;10.50;99.90
7704;DHT22;3894;49.700;10.770;2024-02-26T14:59:06;10.50;99.90
7704;DHT22;3894;49.700;10.770;2024-02-26T15:01:32;10.50;99.90
7704;DHT22;3894;49.700;10.770;2024-02-26T15:03:58;10.40;99.90
7704;DHT22;3894;49.700;10.770;2024-02-26T15:06:25;10.40;99.90
7704;DHT22;3894;49.700;10.770;2024-02-26T15:08:52;10.40;99.90
7704;DHT22;3894;49.700;10.770;2024-02-26T15:11:18;10.30;99.90
7704;DHT22;3894;49.700;10.770;2024-02-26T15:13:43;10.30;99.90
7704;DHT22;3894;49.700;10.770;2024-02-26T15:16:16;10.30;99.90
7704;DHT22;3894;49.700;10.770;2024-02-26T15:18:41;10.30;99.90
7704;DHT22;3894;49.700;10.770;2024-02-26T15:21:07;10.20;99.90
7704;DHT22;3894;49.700;10.770;2024-02-26T15:23:33;10.20;99.90
7704;DHT22;3894;49.700;10.770;2024-02-26T15:26:00;10.20;99.90
7704;DHT22;3894;49.700;10.770;2024-02-26T15:28:27;10.10;99.90
7704;DHT22;3894;49.700;10.770;2024-02-26T15:30:54;10.10;99.90
7704;DHT22;3894;49.700;10.770;2024-02-26T15:33:19;10.10;99.90
7704;DHT22;3894;49.700;10.770;2024-02-26T15:35:45;10.10;99.90
7704;DHT22;3894;49.700;10.770;2024-02-26T15:38:10;10.10;99.90
7704;DHT22;3894;49.700;10.770;2024-02-26T15:40:36;10.00;99.90
7704;DHT22;3894;49.700;10.770;2024-02-26T15:43:01;10.00;99.90
7704;DHT22;3894;49.700;10.770;2024-02-26T15:45:27;10.00;99.90
7704;DHT22;3894;49.700;10.770;2024-02-26T15:47:57;9.90;99.90
7704;DHT22;3894;49.700;10.770;2024-02-26T15:50:23;9.90;99.90
7704;DHT22;3894;49.700;10.770;2024-02-26T15:52:49;9.90;99.90
7704;DHT22;3894;49.700;10.770;2024-02-26T15:55:14;9.80;99.90
7704;DHT22;3894;49.700;10.770;2024-02-26T15:57:41;9.80;99.90
7704;DHT22;3894;49.700;10.770;2024-02-26T16:00:07;9.80;99.90
7704;DHT22;3894;49.700;10.770;2024-02-26T16:02:36;9.80;99.90